Time;durP1;ratioP1;P1;durP2;ratioP2;P2;SDS_P1;SDS_P2;PMS_P1;PMS_P2;Temp;Humidity;BMP_temperature;BMP_pressure;BME280_temperature;BME280_humidity;BME280_pressure;Samples;Min_cycle;Max_cycle;Signal;HPM_P1;HPM_P2
2023/09/20 00:02:45;;;;;;;0.73;0.65;;;21.80;68.30;;;;;;6267941;28;20021;-66
2023/09/20 00:05:49;;;;;;;0.90;0.70;;;21.80;68.30;;;;;;6267682;28;20024;-66
2023/09/20 00:08:49;;;;;;;0.83;0.50;;;21.80;68.20;;;;;;6267272;28;20453;-66
2023/09/20 00:11:53;;;;;;;0.60;0.43;;;21.80;68.30;;;;;;6268040;28;20029;-66
2023/09/20 00:14:53;;;;;;;0.40;0.40;;;21.80;68.30;;;;;;6267075;28;20117;-66
2023/09/20 00:17:55;;;;;;;0.57;0.38;;;21.80;68.30;;;;;;6265842;28;20021;-66
2023/09/20 00:20:57;;;;;;;0.50;0.50;;;21.80;68.30;;;;;;6266719;28;20036;-66
2023/09/20 00:23:58;;;;;;;0.63;0.60;;;21.80;68.30;;;;;;6267209;28;20422;-67
2023/09/20 00:26:59;;;;;;;0.50;0.32;;;21.80;68.30;;;;;;6266625;28;20064;-66
2023/09/20 00:30:00;;;;;;;0.38;0.38;;;21.80;68.20;;;;;;6267059;28;20021;-66
2023/09/20 00:33:01;;;;;;;0.30;0.30;;;21.80;68.30;;;;;;6267210;28;20095;-66
2023/09/20 00:36:02;;;;;;;0.70;0.60;;;21.80;68.20;;;;;;6267120;28;20480;-66
2023/09/20 00:39:03;;;;;;;0.55;0.52;;;21.80;68.30;;;;;;6266618;28;20053;-66
2023/09/20 00:42:04;;;;;;;0.43;0.40;;;21.80;68.30;;;;;;6266851;28;20048;-66
2023/09/20 00:45:06;;;;;;;0.75;0.50;;;21.80;68.30;;;;;;6266980;28;20531;-66
2023/09/20 00:48:13;;;;;;;0.75;0.60;;;21.80;68.20;;;;;;6266402;28;20484;-66
2023/09/20 00:51:15;;;;;;;0.50;0.40;;;21.80;68.30;;;;;;6266294;28;20031;-66
2023/09/20 00:54:16;;;;;;;0.90;0.80;;;21.80;68.30;;;;;;6266800;28;20035;-66
2023/09/20 00:57:19;;;;;;;0.57;0.50;;;21.80;68.30;;;;;;6266618;28;20052;-66
2023/09/20 01:00:21;;;;;;;0.60;0.50;;;21.80;68.30;;;;;;6266766;28;20518;-66
2023/09/20 01:03:24;;;;;;;0.55;0.40;;;21.80;68.30;;;;;;6267570;28;20050;-66
2023/09/20 01:06:27;;;;;;;0.50;0.40;;;21.80;68.30;;;;;;6261206;28;20110;-66
2023/09/20 01:09:29;;;;;;;0.70;0.57;;;21.80;68.30;;;;;;6272016;28;20029;-66
2023/09/20 01:12:30;;;;;;;0.30;0.30;;;21.80;68.30;;;;;;6269896;28;20592;-66
2023/09/20 01:15:32;;;;;;;1.02;0.60;;;21.80;68.30;;;;;;6271567;28;20021;-66
2023/09/20 01:18:34;;;;;;;0.47;0.43;;;21.80;68.30;;;;;;6270325;28;20060;-66
2023/09/20 01:21:42;;;;;;;0.75;0.40;;;21.80;68.30;;;;;;6271130;28;20051;-66
2023/09/20 01:24:44;;;;;;;0.70;0.57;;;21.80;68.30;;;;;;6271597;28;20029;-66
2023/09/20 01:27:45;;;;;;;0.63;0.45;;;21.80;68.30;;;;;;6269517;28;20422;-66
2023/09/20 01:30:50;;;;;;;0.50;0.47;;;21.80;68.30;;;;;;6270929;28;20113;-66
2023/09/20 01:33:52;;;;;;;0.60;0.60;;;21.80;68.30;;;;;;6271251;28;20025;-66
2023/09/20 01:36:52;;;;;;;0.70;0.50;;;21.80;68.30;;;;;;6270947;28;20036;-66
2023/09/20 01:39:53;;;;;;;0.57;0.50;;;21.80;68.30;;;;;;6270629;28;20049;-66
2023/09/20 01:42:54;;;;;;;0.60;0.50;;;21.80;68.30;;;;;;6269816;28;20056;-66
2023/09/20 01:45:55;;;;;;;0.47;0.47;;;21.80;68.30;;;;;;6271047;28;20021;-66
2023/09/20 01:48:58;;;;;;;0.88;0.65;;;21.80;68.30;;;;;;6269920;28;20453;-66
2023/09/20 01:51:59;;;;;;;0.77;0.60;;;21.80;68.30;;;;;;6269616;28;20032;-66
2023/09/20 01:55:02;;;;;;;0.40;0.40;;;21.80;68.30;;;;;;6270809;28;20029;-66
2023/09/20 01:58:06;;;;;;;0.50;0.50;;;21.80;68.30;;;;;;6270053;28;20218;-66
2023/09/20 02:01:06;;;;;;;0.40;0.32;;;21.80;68.30;;;;;;6270522;28;20029;-66
2023/09/20 02:04:08;;;;;;;0.85;0.55;;;21.80;68.30;;;;;;6285352;28;20108;-66
2023/09/20 02:07:10;;;;;;;0.50;0.50;;;21.80;68.30;;;;;;6268792;28;20432;-66
2023/09/20 02:10:11;;;;;;;0.50;0.45;;;21.80;68.30;;;;;;6269120;28;20035;-66
2023/09/20 02:13:15;;;;;;;0.82;0.55;;;21.80;68.30;;;;;;6270278;28;20063;-66
2023/09/20 02:16:17;;;;;;;1.38;0.50;;;21.80;68.30;;;;;;6269252;28;20029;-66
2023/09/20 02:19:19;;;;;;;0.40;0.40;;;21.80;68.30;;;;;;6267686;28;20028;-66
2023/09/20 02:22:20;;;;;;;0.65;0.40;;;21.80;68.30;;;;;;6270014;28;20031;-66
2023/09/20 02:25:22;;;;;;;0.65;0.52;;;21.80;68.30;;;;;;6270041;28;20502;-67
2023/09/20 02:28:23;;;;;;;0.38;0.38;;;21.80;68.30;;;;;;6268287;28;20562;-67
2023/09/20 02:31:23;;;;;;;0.70;0.50;;;21.80;68.30;;;;;;6261672;28;20107;-66
2023/09/20 02:34:24;;;;;;;0.60;0.50;;;21.80;68.30;;;;;;6269689;28;20029;-66
2023/09/20 02:37:24;;;;;;;0.80;0.60;;;21.80;68.20;;;;;;6269412;28;20041;-66
2023/09/20 02:40:28;;;;;;;0.40;0.40;;;21.80;68.20;;;;;;6270078;28;20025;-66
2023/09/20 02:43:29;;;;;;;0.32;0.30;;;21.80;68.20;;;;;;6269328;28;20064;-67
2023/09/20 02:46:31;;;;;;;0.50;0.40;;;21.80;68.20;;;;;;6269822;28;20025;-67
2023/09/20 02:49:33;;;;;;;0.63;0.43;;;21.80;68.20;;;;;;6269941;28;20018;-66
2023/09/20 02:52:34;;;;;;;0.47;0.40;;;21.80;68.20;;;;;;6268802;28;20108;-66
2023/09/20 02:55:35;;;;;;;0.40;0.38;;;21.80;68.20;;;;;;6261866;28;20306;-66
2023/09/20 02:58:37;;;;;;;0.85;0.65;;;21.80;68.20;;;;;;6268663;28;20103;-66
2023/09/20 03:01:38;;;;;;;0.90;0.63;;;21.80;68.20;;;;;;6269061;28;20027;-66
2023/09/20 03:04:39;;;;;;;1.00;0.73;;;21.80;68.20;;;;;;6266751;28;20056;-67
2023/09/20 03:07:42;;;;;;;0.85;0.57;;;21.80;68.20;;;;;;6262601;28;20522;-66
2023/09/20 03:10:42;;;;;;;0.75;0.47;;;21.80;69.00;;;;;;6269248;28;20100;-66
2023/09/20 03:13:43;;;;;;;0.88;0.60;;;21.80;68.20;;;;;;6268629;28;20119;-66
2023/09/20 03:16:44;;;;;;;0.65;0.60;;;21.80;68.20;;;;;;6268828;28;20052;-66
2023/09/20 03:19:46;;;;;;;0.57;0.50;;;21.80;69.00;;;;;;6267283;28;20025;-67
2023/09/20 03:22:48;;;;;;;0.65;0.60;;;21.80;68.20;;;;;;6268589;28;20071;-66
2023/09/20 03:25:49;;;;;;;0.85;0.45;;;21.80;68.20;;;;;;6268754;28;20039;-66
2023/09/20 03:28:53;;;;;;;0.68;0.63;;;21.80;68.20;;;;;;6267486;28;20020;-66
2023/09/20 03:31:58;;;;;;;1.58;0.75;;;21.80;68.20;;;;;;6257042;28;20537;-67
2023/09/20 03:34:59;;;;;;;1.00;0.68;;;21.80;68.20;;;;;;6267981;28;20346;-66
2023/09/20 03:38:00;;;;;;;0.75;0.50;;;21.80;68.20;;;;;;6268231;28;20550;-66
2023/09/20 03:41:01;;;;;;;0.98;0.77;;;21.80;68.20;;;;;;6268084;28;20033;-68
2023/09/20 03:44:01;;;;;;;0.43;0.40;;;21.80;68.20;;;;;;6267822;28;20158;-66
2023/09/20 03:47:04;;;;;;;0.65;0.60;;;21.80;68.20;;;;;;6268002;28;20028;-67
2023/09/20 03:50:12;;;;;;;0.47;0.47;;;21.80;68.20;;;;;;6268177;28;20017;-66
2023/09/20 03:53:13;;;;;;;0.50;0.43;;;21.80;68.20;;;;;;6267208;28;20513;-66
2023/09/20 03:56:14;;;;;;;1.02;0.60;;;21.80;68.20;;;;;;6267893;28;20104;-66
2023/09/20 04:03:13;;;;;;;0.70;0.60;;;21.80;68.20;;;;;;6267388;28;20033;-67
2023/09/20 04:06:15;;;;;;;0.85;0.70;;;21.80;68.20;;;;;;6267785;28;20480;-67
2023/09/20 04:09:17;;;;;;;0.50;0.50;;;21.80;68.20;;;;;;6268108;28;20078;-67
2023/09/20 04:12:18;;;;;;;0.70;0.60;;;21.80;68.20;;;;;;6266233;28;20017;-67
2023/09/20 04:15:19;;;;;;;0.68;0.50;;;21.80;68.20;;;;;;6267462;28;20403;-67
2023/09/20 04:18:19;;;;;;;0.60;0.60;;;21.80;68.20;;;;;;6265627;28;20036;-67
2023/09/20 04:21:21;;;;;;;1.10;0.70;;;21.80;68.20;;;;;;6266202;28;20041;-67
2023/09/20 04:24:21;;;;;;;1.50;0.63;;;21.80;68.20;;;;;;6267163;28;20303;-67
2023/09/20 04:27:22;;;;;;;0.90;0.60;;;21.80;68.20;;;;;;6266020;28;20035;-68
2023/09/20 04:30:23;;;;;;;0.98;0.80;;;21.80;68.30;;;;;;6265690;28;20036;-67
2023/09/20 04:33:23;;;;;;;1.05;0.65;;;21.80;68.20;;;;;;6267011;28;20382;-67
2023/09/20 04:36:24;;;;;;;1.25;0.80;;;21.80;68.30;;;;;;6266007;28;20036;-67
2023/09/20 04:39:25;;;;;;;0.93;0.55;;;21.80;68.30;;;;;;6266414;28;20457;-67
2023/09/20 04:42:32;;;;;;;0.75;0.70;;;21.80;68.30;;;;;;6266664;28;20077;-68
2023/09/20 04:45:33;;;;;;;0.95;0.70;;;21.80;68.30;;;;;;6267510;28;20060;-67
2023/09/20 04:48:34;;;;;;;0.40;0.40;;;21.80;68.30;;;;;;6265387;28;20023;-67
2023/09/20 04:51:36;;;;;;;0.70;0.60;;;21.80;68.30;;;;;;6258722;28;20025;-67
2023/09/20 04:54:39;;;;;;;0.70;0.52;;;21.80;68.30;;;;;;6266973;28;20035;-67
2023/09/20 04:57:41;;;;;;;0.50;0.50;;;21.80;68.30;;;;;;6266930;28;20061;-67
2023/09/20 05:00:42;;;;;;;0.52;0.52;;;21.80;69.10;;;;;;6267049;28;20419;-67
2023/09/20 05:03:43;;;;;;;0.55;0.50;;;21.80;68.30;;;;;;6260721;28;20108;-67
2023/09/20 05:06:45;;;;;;;0.80;0.55;;;21.80;68.30;;;;;;6267528;28;20026;-67
2023/09/20 05:09:50;;;;;;;0.98;0.68;;;21.80;68.30;;;;;;6264210;28;20040;-67
2023/09/20 05:12:51;;;;;;;0.68;0.60;;;21.80;68.30;;;;;;6245542;28;20033;-67
2023/09/20 05:15:52;;;;;;;0.88;0.60;;;21.80;68.30;;;;;;6254950;28;20036;-67
2023/09/20 05:18:53;;;;;;;1.20;0.50;;;21.80;68.30;;;;;;6264793;28;20017;-64
2023/09/20 05:21:54;;;;;;;0.80;0.60;;;21.80;68.30;;;;;;6262316;28;20053;-64
2023/09/20 05:24:57;;;;;;;0.77;0.60;;;21.80;68.30;;;;;;6263120;28;20043;-64
2023/09/20 05:27:57;;;;;;;0.70;0.57;;;21.80;68.30;;;;;;6258511;28;20028;-64
2023/09/20 05:31:00;;;;;;;0.70;0.60;;;21.80;68.30;;;;;;6262653;28;20329;-64
2023/09/20 05:34:00;;;;;;;0.65;0.52;;;21.80;68.30;;;;;;6268234;28;20140;-65
2023/09/20 05:37:01;;;;;;;0.50;0.40;;;21.80;68.30;;;;;;6267928;28;20159;-65
2023/09/20 05:40:03;;;;;;;0.95;0.50;;;21.80;68.30;;;;;;6266121;28;20400;-64
2023/09/20 05:43:06;;;;;;;0.60;0.50;;;21.80;68.30;;;;;;6270168;28;20025;-65
2023/09/20 05:46:09;;;;;;;0.47;0.47;;;21.80;68.30;;;;;;6259096;28;20021;-65
2023/09/20 05:49:10;;;;;;;0.80;0.50;;;21.80;68.30;;;;;;6253304;28;20053;-65
2023/09/20 05:52:10;;;;;;;0.85;0.60;;;21.80;68.30;;;;;;6274724;28;20406;-65
2023/09/20 05:55:13;;;;;;;0.77;0.60;;;21.80;68.10;;;;;;6282343;28;20097;-65
2023/09/20 05:58:15;;;;;;;0.50;0.50;;;21.80;68.00;;;;;;6262149;28;20111;-65
2023/09/20 06:01:17;;;;;;;0.82;0.52;;;21.80;68.00;;;;;;6272533;28;20028;-65
2023/09/20 06:04:19;;;;;;;0.88;0.63;;;21.80;68.00;;;;;;6276938;28;20028;-64
2023/09/20 06:07:19;;;;;;;0.50;0.50;;;21.80;68.10;;;;;;6272282;28;20025;-64
2023/09/20 06:10:22;;;;;;;0.85;0.60;;;21.80;68.10;;;;;;6284963;28;20025;-64
2023/09/20 06:13:23;;;;;;;1.13;0.60;;;21.80;68.20;;;;;;6255729;28;20028;-65
2023/09/20 06:16:24;;;;;;;0.60;0.50;;;21.80;68.30;;;;;;6276128;28;20024;-65
2023/09/20 06:19:30;;;;;;;0.73;0.50;;;21.80;68.20;;;;;;6275870;28;20028;-65
2023/09/20 06:22:31;;;;;;;0.60;0.47;;;21.80;68.30;;;;;;6264854;28;20921;-65
2023/09/20 06:25:34;;;;;;;0.60;0.60;;;21.80;68.20;;;;;;6264556;28;20032;-65
2023/09/20 06:28:35;;;;;;;0.68;0.55;;;21.80;68.30;;;;;;6268004;28;20092;-65
2023/09/20 06:31:40;;;;;;;0.60;0.60;;;21.80;68.30;;;;;;6273404;28;20028;-65
2023/09/20 06:34:41;;;;;;;0.55;0.50;;;21.80;68.30;;;;;;6272987;28;20029;-65
2023/09/20 06:37:45;;;;;;;0.65;0.40;;;21.80;68.30;;;;;;6266198;28;20415;-65
2023/09/20 06:40:53;;;;;;;0.50;0.50;;;21.80;68.30;;;;;;6263224;28;20032;-65
2023/09/20 06:43:57;;;;;;;0.40;0.38;;;21.80;68.30;;;;;;6275197;28;20745;-65
2023/09/20 06:46:58;;;;;;;0.82;0.65;;;21.80;68.30;;;;;;6272135;28;20028;-65
2023/09/20 06:50:02;;;;;;;0.60;0.47;;;21.80;68.30;;;;;;6264607;28;20082;-65
2023/09/20 06:53:03;;;;;;;1.38;0.60;;;21.80;68.30;;;;;;6269787;28;20057;-65
2023/09/20 06:56:04;;;;;;;0.60;0.50;;;21.80;68.30;;;;;;6258722;28;20078;-64
2023/09/20 06:59:05;;;;;;;0.40;0.32;;;21.80;68.30;;;;;;6271472;28;20021;-66
2023/09/20 07:02:07;;;;;;;0.70;0.50;;;21.80;68.30;;;;;;6266931;28;20365;-65
2023/09/20 07:05:09;;;;;;;2.90;0.40;;;21.80;68.10;;;;;;6265170;28;20022;-65
2023/09/20 07:08:10;;;;;;;3.60;0.45;;;21.90;68.00;;;;;;6262703;28;20048;-65
2023/09/20 07:11:12;;;;;;;4.55;0.60;;;22.00;67.70;;;;;;6265092;28;20050;-64
2023/09/20 07:14:14;;;;;;;7.40;0.60;;;22.10;67.80;;;;;;6268741;28;20033;-65
2023/09/20 07:17:14;;;;;;;6.28;1.00;;;22.10;67.70;;;;;;6266773;28;20058;-65
2023/09/20 07:20:17;;;;;;;5.47;0.70;;;22.10;68.30;;;;;;6266315;28;20491;-67
2023/09/20 07:23:19;;;;;;;15.32;0.70;;;22.10;68.90;;;;;;6264314;28;20738;-65
2023/09/20 07:26:21;;;;;;;6.22;0.68;;;22.20;68.30;;;;;;6266942;28;20535;-65
2023/09/20 07:29:24;;;;;;;1.95;0.77;;;22.20;68.60;;;;;;6269034;28;20056;-65
2023/09/20 07:32:25;;;;;;;2.25;0.50;;;22.10;68.30;;;;;;6266465;28;20471;-65
2023/09/20 07:35:26;;;;;;;1.40;0.50;;;22.20;68.40;;;;;;6262534;28;20041;-65
2023/09/20 07:38:28;;;;;;;1.92;0.60;;;22.20;68.20;;;;;;6262283;28;20504;-65
2023/09/20 07:41:29;;;;;;;9.98;0.80;;;22.20;68.10;;;;;;6270086;28;20094;-65
2023/09/20 07:44:31;;;;;;;9.52;0.90;;;22.20;68.30;;;;;;6260583;28;20037;-66
2023/09/20 07:47:32;;;;;;;1.00;0.60;;;22.30;68.40;;;;;;6269942;28;20095;-65
2023/09/20 07:50:32;;;;;;;8.70;0.77;;;22.30;68.00;;;;;;6267308;28;20025;-66
2023/09/20 07:53:33;;;;;;;2.60;0.60;;;22.30;68.60;;;;;;6262136;28;20032;-66
2023/09/20 07:56:34;;;;;;;1.20;0.70;;;22.40;68.60;;;;;;6264133;28;20063;-65
2023/09/20 07:59:36;;;;;;;0.95;0.52;;;22.40;68.30;;;;;;6270534;28;20021;-66
2023/09/20 08:02:38;;;;;;;7.32;0.80;;;22.40;67.90;;;;;;6271202;28;20067;-65
2023/09/20 08:05:41;;;;;;;4.78;0.82;;;22.50;68.50;;;;;;6258606;28;20457;-62
2023/09/20 08:08:43;;;;;;;3.25;1.02;;;22.50;68.10;;;;;;6267812;28;20018;-62
2023/09/20 08:11:44;;;;;;;6.68;1.23;;;22.50;68.50;;;;;;6266622;28;20049;-62
2023/09/20 08:14:45;;;;;;;3.08;1.00;;;22.40;68.60;;;;;;6265520;28;20021;-61
2023/09/20 08:21:05;;;;;;;5.65;1.08;;;22.40;68.40;;;;;;6264224;28;20648;-61
2023/09/20 09:00:50;;;;;;;13.40;2.45;;;22.80;68.50;;;;;;6265169;28;20045;-62
2023/09/20 09:03:54;;;;;;;9.93;2.72;;;22.80;68.50;;;;;;6257869;28;20391;-62
2023/09/20 09:06:54;;;;;;;5.05;1.75;;;22.70;67.60;;;;;;6265804;28;20025;-62
2023/09/20 09:09:55;;;;;;;11.13;2.90;;;22.60;67.80;;;;;;6265544;28;20032;-62
2023/09/20 09:12:56;;;;;;;6.85;2.50;;;22.60;68.30;;;;;;6270842;28;20021;-62
2023/09/20 09:15:57;;;;;;;8.93;2.35;;;22.60;68.10;;;;;;6272090;28;20020;-62
2023/09/20 09:18:58;;;;;;;15.80;2.22;;;22.50;68.10;;;;;;6261129;28;20068;-61
2023/09/20 09:22:00;;;;;;;11.75;2.97;;;22.50;68.10;;;;;;6265043;28;20029;-62
2023/09/20 09:25:01;;;;;;;10.35;2.40;;;22.50;68.10;;;;;;6262978;28;20029;-62
2023/09/20 09:28:02;;;;;;;7.30;2.45;;;22.50;68.10;;;;;;6261810;28;20025;-62
2023/09/20 09:31:04;;;;;;;6.72;2.38;;;22.50;68.10;;;;;;6274421;28;20686;-62
2023/09/20 09:34:07;;;;;;;6.07;2.22;;;22.50;68.00;;;;;;6276006;28;20017;-61
2023/09/20 09:37:10;;;;;;;9.68;2.30;;;22.50;68.00;;;;;;6274001;28;20040;-61
2023/09/20 09:40:12;;;;;;;5.88;2.13;;;22.50;68.00;;;;;;6272315;28;20549;-61
2023/09/20 09:43:15;;;;;;;7.80;2.55;;;22.40;67.90;;;;;;6268327;28;20587;-62
2023/09/20 09:46:17;;;;;;;6.22;1.92;;;22.40;67.90;;;;;;6267227;28;20574;-60
2023/09/20 09:49:19;;;;;;;9.82;1.83;;;22.40;67.80;;;;;;6270679;28;20023;-62
2023/09/20 09:52:25;;;;;;;6.72;1.98;;;22.40;67.80;;;;;;6272775;28;20105;-61
2023/09/20 09:55:25;;;;;;;6.30;2.05;;;22.40;67.80;;;;;;6270166;28;20032;-62
2023/09/20 09:58:27;;;;;;;8.23;2.38;;;22.50;67.90;;;;;;6265890;28;20468;-61
2023/09/20 10:01:28;;;;;;;4.10;1.88;;;22.40;67.70;;;;;;6266796;28;20433;-62
2023/09/20 10:04:31;;;;;;;5.60;2.13;;;22.50;67.70;;;;;;6268503;28;20120;-62
2023/09/20 10:07:39;;;;;;;6.78;2.28;;;22.40;67.70;;;;;;6261623;28;20519;-62
2023/09/20 10:10:44;;;;;;;5.00;1.70;;;22.40;67.60;;;;;;6268426;28;20032;-62
2023/09/20 10:13:45;;;;;;;5.07;1.95;;;22.40;67.60;;;;;;6270787;28;20063;-62
2023/09/20 10:16:48;;;;;;;5.32;1.83;;;22.40;67.60;;;;;;6267648;28;20029;-62
2023/09/20 10:19:53;;;;;;;3.58;1.73;;;22.40;67.50;;;;;;6267719;28;20017;-62
2023/09/20 10:22:54;;;;;;;;;;;22.40;67.60;;;;;;6269431;28;20052;-62
2023/09/20 10:25:56;;;;;;;6.50;1.50;;;22.40;67.50;;;;;;6277065;28;20252;-62
2023/09/20 10:29:24;;;;;;;8.20;1.88;;;22.40;67.50;;;;;;6261151;28;20033;-62
2023/09/20 10:32:31;;;;;;;4.28;1.45;;;22.50;67.60;;;;;;6273011;28;20033;-62
2023/09/20 10:35:36;;;;;;;3.67;1.80;;;22.50;67.60;;;;;;6273193;28;20404;-62
2023/09/20 10:38:40;;;;;;;4.28;1.35;;;22.50;67.60;;;;;;6264748;28;20376;-62
2023/09/20 10:41:41;;;;;;;4.63;1.55;;;22.50;67.60;;;;;;6265517;28;20021;-63
2023/09/20 10:44:43;;;;;;;4.60;1.85;;;22.50;67.60;;;;;;6266111;28;20399;-63
2023/09/20 10:47:52;;;;;;;3.00;1.55;;;22.50;67.60;;;;;;6265062;28;20032;-62
2023/09/20 10:50:57;;;;;;;2.67;1.40;;;22.40;67.50;;;;;;6268493;28;20045;-63
2023/09/20 10:53:58;;;;;;;4.18;1.50;;;22.40;67.40;;;;;;6273330;28;20502;-63
2023/09/20 10:57:03;;;;;;;3.38;1.48;;;22.50;67.60;;;;;;6269573;28;20025;-63
2023/09/20 11:00:04;;;;;;;3.92;1.30;;;22.40;67.40;;;;;;6271689;28;20036;-63
2023/09/20 11:03:10;;;;;;;3.08;1.40;;;22.50;67.50;;;;;;6261212;28;20033;-62
2023/09/20 11:06:10;;;;;;;2.58;1.23;;;22.40;67.40;;;;;;6264989;28;20487;-62
2023/09/20 11:09:15;;;;;;;3.55;1.38;;;22.40;67.40;;;;;;6266546;28;20025;-62
2023/09/20 11:12:15;;;;;;;2.60;1.20;;;22.40;67.40;;;;;;6273685;28;20032;-61
2023/09/20 11:15:16;;;;;;;3.85;1.50;;;22.40;67.40;;;;;;6272932;28;20056;-62
2023/09/20 11:18:19;;;;;;;3.15;1.50;;;22.50;67.50;;;;;;6279698;28;20036;-62
2023/09/20 11:21:20;;;;;;;2.92;1.10;;;22.50;67.50;;;;;;6259171;28;20116;-62
2023/09/20 11:24:21;;;;;;;2.97;1.10;;;22.40;67.30;;;;;;6272288;28;20044;-63
2023/09/20 11:27:23;;;;;;;4.07;1.30;;;22.50;67.50;;;;;;6259043;28;20026;-63
2023/09/20 11:30:27;;;;;;;5.13;1.48;;;22.40;67.30;;;;;;6259978;28;20056;-62
2023/09/20 11:33:29;;;;;;;5.77;1.30;;;22.50;67.50;;;;;;6264793;28;20039;-62
2023/09/20 11:36:38;;;;;;;5.55;1.48;;;22.70;67.10;;;;;;6263510;28;20283;-62
2023/09/20 11:39:42;;;;;;;5.45;1.65;;;22.80;66.70;;;;;;6268117;28;20059;-63
2023/09/20 11:42:44;;;;;;;7.78;2.10;;;22.90;66.50;;;;;;6267948;28;20024;-62
2023/09/20 11:45:49;;;;;;;11.05;2.53;;;22.90;66.30;;;;;;6265231;28;20059;-63
2023/09/20 11:48:50;;;;;;;12.18;2.60;;;22.90;66.40;;;;;;6266433;28;20506;-62
2023/09/20 11:51:54;;;;;;;10.45;2.33;;;22.90;66.60;;;;;;6262161;28;20049;-63
2023/09/20 11:54:57;;;;;;;7.90;2.05;;;22.80;66.80;;;;;;6259625;28;20025;-62
2023/09/20 11:58:00;;;;;;;11.55;2.72;;;22.70;67.10;;;;;;6272144;28;20111;-63
2023/09/20 12:01:04;;;;;;;5.53;2.25;;;22.60;67.20;;;;;;6266439;28;20032;-62
2023/09/20 12:04:05;;;;;;;9.25;2.40;;;22.60;67.50;;;;;;6254757;28;20021;-63
2023/09/20 12:07:07;;;;;;;7.72;2.17;;;22.60;67.60;;;;;;6264617;28;20029;-62
2023/09/20 12:10:08;;;;;;;6.82;2.33;;;22.50;67.60;;;;;;6275895;28;20025;-63
2023/09/20 12:13:09;;;;;;;7.15;2.08;;;22.50;67.70;;;;;;6275620;28;20048;-63
2023/09/20 12:16:09;;;;;;;6.03;2.08;;;22.50;67.80;;;;;;6273801;28;20029;-63
2023/09/20 12:19:10;;;;;;;4.57;2.05;;;22.50;67.80;;;;;;6273459;28;20028;-63
2023/09/20 12:22:11;;;;;;;6.78;2.22;;;22.40;67.80;;;;;;6271650;28;20040;-64
2023/09/20 12:25:11;;;;;;;10.88;2.20;;;22.40;67.80;;;;;;6269250;28;20086;-63
2023/09/20 12:28:12;;;;;;;7.60;2.00;;;22.40;67.80;;;;;;6267285;28;20391;-63
2023/09/20 12:31:13;;;;;;;6.68;2.00;;;22.40;67.90;;;;;;6267475;28;20017;-63
2023/09/20 12:34:14;;;;;;;6.65;2.03;;;22.40;67.90;;;;;;6261535;28;20033;-64
2023/09/20 12:37:19;;;;;;;8.25;1.75;;;22.40;68.00;;;;;;6261336;28;20170;-64
2023/09/20 12:40:21;;;;;;;6.68;1.70;;;22.40;68.10;;;;;;6265995;28;20064;-63
2023/09/20 12:43:22;;;;;;;6.25;2.55;;;22.30;67.90;;;;;;6271582;28;20127;-64
2023/09/20 12:46:24;;;;;;;5.80;2.13;;;22.30;67.90;;;;;;6275557;28;20398;-63
2023/09/20 12:49:25;;;;;;;6.00;1.92;;;22.30;67.90;;;;;;6259702;28;20025;-63
2023/09/20 12:52:26;;;;;;;4.85;2.10;;;22.30;68.00;;;;;;6276048;28;20555;-63
2023/09/20 12:55:27;;;;;;;4.50;1.75;;;22.30;68.10;;;;;;6271249;28;20060;-64
2023/09/20 12:58:28;;;;;;;9.00;1.95;;;22.30;68.10;;;;;;6275813;28;20094;-63
2023/09/20 13:01:30;;;;;;;4.15;1.75;;;22.30;68.10;;;;;;6269247;28;20021;-64
2023/09/20 13:04:30;;;;;;;5.75;1.80;;;22.30;68.10;;;;;;6268178;28;20399;-63
2023/09/20 13:07:31;;;;;;;3.90;1.90;;;22.20;68.00;;;;;;6271092;28;20437;-63
2023/09/20 13:10:33;;;;;;;5.57;2.00;;;22.30;68.20;;;;;;6265191;28;20051;-63
2023/09/20 13:13:36;;;;;;;7.45;2.15;;;22.20;68.00;;;;;;6274904;28;20466;-63
2023/09/20 13:16:37;;;;;;;4.85;1.85;;;22.30;68.20;;;;;;6271652;28;20480;-62
2023/09/20 13:19:37;;;;;;;5.75;2.03;;;22.30;68.20;;;;;;6275525;28;20056;-63
2023/09/20 13:22:39;;;;;;;4.40;1.83;;;22.30;68.20;;;;;;6271401;28;20029;-63
2023/09/20 13:25:42;;;;;;;3.55;1.73;;;22.20;68.10;;;;;;6270917;28;20029;-63
2023/09/20 13:28:43;;;;;;;3.85;1.55;;;22.20;69.00;;;;;;6271133;28;20013;-63
2023/09/20 13:31:44;;;;;;;4.38;1.73;;;22.20;68.10;;;;;;6271884;28;20021;-63
2023/09/20 13:34:45;;;;;;;5.22;1.63;;;22.20;68.20;;;;;;6265102;28;20470;-63
2023/09/20 13:37:46;;;;;;;5.35;1.48;;;22.20;68.20;;;;;;6271551;28;20116;-62
2023/09/20 13:40:49;;;;;;;4.93;1.75;;;22.20;68.20;;;;;;6269412;28;20025;-63
2023/09/20 13:43:50;;;;;;;2.80;1.65;;;22.20;68.20;;;;;;6267418;28;20025;-63
2023/09/20 13:46:51;;;;;;;4.50;1.67;;;22.20;68.20;;;;;;6279698;28;20025;-63
2023/09/20 13:49:52;;;;;;;2.72;1.35;;;22.10;68.10;;;;;;6265094;28;20056;-63
2023/09/20 13:52:53;;;;;;;3.72;1.55;;;22.20;68.20;;;;;;6271296;28;20025;-63
2023/09/20 13:56:03;;;;;;;2.80;1.67;;;22.20;68.30;;;;;;6275105;28;20028;-63
2023/09/20 13:59:04;;;;;;;4.28;1.80;;;22.10;68.10;;;;;;6266513;28;20075;-63
2023/09/20 14:02:06;;;;;;;3.40;1.48;;;22.20;68.30;;;;;;6272341;28;20048;-63
2023/09/20 14:05:14;;;;;;;2.92;1.58;;;22.20;68.30;;;;;;6277713;28;20033;-63
2023/09/20 14:08:15;;;;;;;5.75;1.77;;;22.20;68.30;;;;;;6278865;28;20163;-63
2023/09/20 14:11:15;;;;;;;2.72;1.50;;;22.10;68.20;;;;;;6271262;28;20086;-63
2023/09/20 14:14:21;;;;;;;1.83;1.10;;;22.10;68.30;;;;;;6269838;28;20031;-63
2023/09/20 14:17:21;;;;;;;3.13;1.40;;;22.10;68.30;;;;;;6269041;28;20068;-63
2023/09/20 14:20:22;;;;;;;3.40;1.65;;;22.10;68.30;;;;;;6271239;28;20037;-63
2023/09/20 14:23:23;;;;;;;1.75;1.23;;;22.10;68.30;;;;;;6270462;28;20074;-63
2023/09/20 14:26:27;;;;;;;2.85;1.23;;;22.10;68.30;;;;;;6266791;28;20021;-63
2023/09/20 14:29:30;;;;;;;2.50;1.37;;;22.10;68.30;;;;;;6266941;28;20403;-63
2023/09/20 14:32:32;;;;;;;5.82;1.55;;;22.10;68.30;;;;;;6270561;28;20313;-63
2023/09/20 14:35:32;;;;;;;4.18;1.35;;;22.10;68.30;;;;;;6270065;28;20032;-63
2023/09/20 14:38:33;;;;;;;2.38;1.13;;;22.10;68.30;;;;;;6275672;28;20052;-63
2023/09/20 14:41:35;;;;;;;2.95;1.50;;;22.10;68.30;;;;;;6277357;28;20036;-63
2023/09/20 14:44:35;;;;;;;5.45;1.42;;;22.10;68.30;;;;;;6269111;28;20079;-63
2023/09/20 14:47:37;;;;;;;2.47;1.20;;;22.10;68.40;;;;;;6273016;28;20021;-63
2023/09/20 14:50:37;;;;;;;3.10;1.10;;;22.10;68.30;;;;;;6267146;28;20509;-63
2023/09/20 14:53:38;;;;;;;3.65;1.15;;;22.10;68.20;;;;;;6261529;28;20040;-63
2023/09/20 14:56:39;;;;;;;2.78;1.40;;;22.10;68.20;;;;;;6268911;28;20054;-64
2023/09/20 14:59:40;;;;;;;3.95;1.17;;;22.10;68.20;;;;;;6271788;28;20523;-63
2023/09/20 15:02:41;;;;;;;4.45;1.60;;;22.10;68.10;;;;;;6266097;28;20037;-63
2023/09/20 15:05:42;;;;;;;6.75;1.42;;;22.20;68.20;;;;;;6263118;28;20112;-63
2023/09/20 15:08:45;;;;;;;5.47;1.20;;;22.20;68.30;;;;;;6272078;28;20127;-63
2023/09/20 15:11:47;;;;;;;2.78;1.13;;;22.20;68.60;;;;;;6270015;28;20022;-63
2023/09/20 15:14:47;;;;;;;2.45;1.23;;;22.10;68.30;;;;;;6262175;28;20128;-63
2023/09/20 15:17:48;;;;;;;3.58;1.23;;;22.20;68.50;;;;;;6267775;28;20044;-63
2023/09/20 15:20:50;;;;;;;5.38;1.65;;;22.10;68.60;;;;;;6266733;28;20479;-64
2023/09/20 15:23:51;;;;;;;3.17;1.13;;;22.10;68.60;;;;;;6271616;28;20368;-63
2023/09/20 15:26:52;;;;;;;1.58;1.02;;;22.10;68.70;;;;;;6271077;28;20442;-63
2023/09/20 15:29:54;;;;;;;3.20;1.23;;;22.10;68.70;;;;;;6263990;28;20021;-63
2023/09/20 15:32:54;;;;;;;2.47;1.27;;;22.10;68.70;;;;;;6267828;28;20017;-62
2023/09/20 15:36:02;;;;;;;3.67;1.33;;;22.10;68.60;;;;;;6258479;28;20095;-63
2023/09/20 15:39:03;;;;;;;3.53;1.30;;;22.10;68.60;;;;;;6272106;28;20138;-63
2023/09/20 15:42:04;;;;;;;2.40;1.20;;;22.10;68.60;;;;;;6267139;28;20459;-63
2023/09/20 15:45:05;;;;;;;2.70;1.20;;;22.10;68.50;;;;;;6267013;28;20064;-63
2023/09/20 15:48:06;;;;;;;2.65;1.20;;;22.10;68.50;;;;;;6271552;28;20021;-63
2023/09/20 15:51:09;;;;;;;4.45;1.45;;;22.10;68.50;;;;;;6265169;28;20559;-62
2023/09/20 15:54:11;;;;;;;1.48;1.08;;;22.10;68.50;;;;;;6264490;28;20021;-64
2023/09/20 15:57:12;;;;;;;2.17;1.30;;;22.10;68.50;;;;;;6263055;28;20040;-63
2023/09/20 16:00:13;;;;;;;2.42;1.40;;;22.10;68.50;;;;;;6266960;28;20025;-63
2023/09/20 16:03:16;;;;;;;5.60;1.20;;;22.10;68.60;;;;;;6273148;28;20037;-63
2023/09/20 16:06:17;;;;;;;1.75;0.98;;;22.10;68.50;;;;;;6263484;28;20021;-63
2023/09/20 16:09:18;;;;;;;1.60;1.05;;;22.10;68.50;;;;;;6267530;28;20028;-66
2023/09/20 16:12:19;;;;;;;2.80;1.27;;;22.10;68.50;;;;;;6280829;28;20025;-65
2023/09/20 16:15:22;;;;;;;3.10;1.00;;;22.10;68.50;;;;;;6260514;28;20489;-62
2023/09/20 16:18:22;;;;;;;3.13;1.13;;;22.10;68.50;;;;;;6264513;28;20389;-63
2023/09/20 16:21:23;;;;;;;1.30;1.10;;;22.10;68.50;;;;;;6263446;28;20028;-62
2023/09/20 16:24:25;;;;;;;1.85;1.30;;;22.10;68.50;;;;;;6259281;28;20028;-62
2023/09/20 16:27:25;;;;;;;1.40;0.95;;;22.10;68.50;;;;;;6263975;28;20033;-63
2023/09/20 16:30:26;;;;;;;1.40;0.95;;;22.10;68.60;;;;;;6260326;28;20021;-63